createdAt,value
2022-08-09T00:01:42.840Z,50.55
2022-08-09T00:04:33.957Z,50.54
2022-08-09T00:07:07.762Z,50.76
2022-08-09T00:09:39.350Z,50.67
2022-08-09T00:12:07.940Z,50.64
2022-08-09T00:14:38.541Z,50.69
2022-08-09T00:17:07.431Z,50.70
2022-08-09T00:19:36.168Z,50.63
2022-08-09T00:22:04.284Z,50.58
2022-08-09T00:24:34.173Z,50.55
2022-08-09T00:27:02.531Z,50.68
2022-08-09T00:30:23.397Z,50.75
2022-08-09T00:32:26.723Z,50.69
2022-08-09T00:34:56.560Z,50.69
2022-08-09T00:37:27.042Z,50.80
2022-08-09T00:40:13.363Z,50.62
2022-08-09T00:44:24.949Z,50.61
2022-08-09T00:45:34.763Z,50.56
2022-08-09T00:48:05.586Z,50.50
2022-08-09T00:50:35.214Z,50.42
2022-08-09T00:53:10.181Z,50.61
2022-08-09T00:56:05.258Z,50.55
2022-08-09T00:58:27.913Z,50.38
2022-08-09T01:00:58.986Z,50.45
2022-08-09T01:03:36.487Z,50.39
2022-08-09T01:06:21.746Z,50.33
2022-08-09T01:09:16.882Z,50.25
2022-08-09T01:11:55.993Z,50.34
2022-08-09T01:14:41.183Z,50.37
2022-08-09T01:17:19.281Z,50.40
2022-08-09T01:20:02.865Z,50.42
2022-08-09T01:23:12.456Z,50.57
2022-08-09T01:26:22.035Z,50.52
2022-08-09T01:28:55.123Z,50.15
2022-08-09T01:32:29.783Z,50.40
2022-08-09T01:34:18.336Z,50.23
2022-08-09T01:36:49.123Z,50.30
2022-08-09T01:39:17.706Z,50.36
2022-08-09T01:41:53.707Z,50.23
2022-08-09T01:44:29.967Z,50.43
2022-08-09T01:47:01.047Z,50.45
2022-08-09T01:49:39.041Z,50.32
2022-08-09T01:52:12.536Z,50.33
2022-08-09T01:54:48.499Z,50.25
2022-08-09T01:57:20.658Z,50.38
2022-08-09T01:59:52.993Z,50.29
2022-08-09T02:02:30.090Z,50.38
2022-08-09T02:05:11.812Z,50.45
2022-08-09T02:08:40.365Z,50.40
2022-08-09T02:10:51.131Z,50.25
2022-08-09T02:13:25.869Z,50.35
2022-08-09T02:16:06.862Z,50.47
2022-08-09T02:18:38.398Z,50.39
2022-08-09T02:21:21.790Z,50.51
2022-08-09T02:23:54.791Z,50.44
2022-08-09T02:26:28.264Z,50.37
2022-08-09T02:29:11.185Z,50.44
2022-08-09T02:31:43.579Z,50.45
2022-08-09T02:34:38.680Z,50.42
2022-08-09T02:37:07.882Z,50.59
2022-08-09T02:39:49.653Z,50.45
2022-08-09T02:42:28.050Z,50.61
2022-08-09T02:45:02.001Z,50.60
2022-08-09T02:47:39.656Z,50.47
2022-08-09T02:50:24.440Z,50.51
2022-08-09T02:53:00.239Z,50.55
2022-08-09T02:55:53.775Z,50.65
2022-08-09T02:58:36.971Z,50.81
2022-08-09T03:01:11.312Z,50.63
2022-08-09T03:04:18.425Z,50.83
2022-08-09T03:06:34.003Z,50.76
2022-08-09T03:09:05.119Z,50.82
2022-08-09T03:12:10.652Z,50.92
2022-08-09T03:14:28.329Z,50.84
2022-08-09T03:16:58.448Z,50.91
2022-08-09T03:19:58.503Z,50.99
2022-08-09T03:22:19.734Z,51.06
2022-08-09T03:25:05.785Z,51.11
2022-08-09T03:27:45.904Z,51.15
2022-08-09T03:30:29.482Z,51.05
2022-08-09T03:33:12.864Z,51.25
2022-08-09T03:36:12.431Z,51.44
2022-08-09T03:38:43.141Z,51.27
2022-08-09T03:41:16.690Z,51.26
2022-08-09T03:44:02.882Z,51.34
2022-08-09T03:46:36.625Z,51.36
2022-08-09T03:49:07.937Z,51.59
2022-08-09T03:51:56.961Z,51.39
2022-08-09T03:54:32.239Z,51.59
2022-08-09T03:57:04.390Z,51.45
2022-08-09T03:59:54.227Z,51.68
2022-08-09T04:02:27.321Z,51.78
2022-08-09T04:05:05.854Z,51.63
2022-08-09T04:07:52.357Z,51.83
2022-08-09T04:10:29.133Z,51.85
2022-08-09T04:13:01.270Z,51.99
2022-08-09T04:15:52.103Z,51.81
2022-08-09T04:18:21.900Z,52.09
2022-08-09T04:20:51.502Z,52.02
2022-08-09T04:23:23.169Z,52.15
2022-08-09T04:25:53.626Z,52.18
2022-08-09T04:28:33.163Z,52.23
2022-08-09T04:31:08.140Z,52.34
2022-08-09T04:33:47.299Z,52.31
2022-08-09T04:36:24.465Z,52.39
2022-08-09T04:38:53.697Z,52.34
2022-08-09T04:41:23.797Z,52.36
2022-08-09T04:44:04.892Z,52.32
2022-08-09T04:46:37.775Z,52.36
2022-08-09T04:49:30.137Z,52.48
2022-08-09T04:52:09.721Z,52.52
2022-08-09T04:54:37.613Z,52.55
2022-08-09T04:57:05.447Z,52.79
2022-08-09T04:59:37.964Z,52.80
2022-08-09T05:02:05.744Z,52.73
2022-08-09T05:04:34.267Z,52.88
2022-08-09T05:07:02.122Z,52.84
2022-08-09T05:09:41.898Z,52.90
2022-08-09T05:12:12.600Z,53.03
2022-08-09T05:14:41.311Z,52.98
2022-08-09T05:17:15.441Z,53.05
2022-08-09T05:19:58.205Z,52.91
2022-08-09T05:22:36.016Z,52.99
2022-08-09T05:25:15.206Z,53.04
2022-08-09T05:27:45.555Z,53.02
2022-08-09T05:30:17.836Z,53.30
2022-08-09T05:32:50.857Z,53.12
2022-08-09T05:35:21.988Z,53.31
2022-08-09T05:37:51.137Z,53.33
2022-08-09T05:40:19.004Z,53.30
2022-08-09T05:42:47.582Z,53.26
2022-08-09T05:45:16.167Z,53.25
2022-08-09T05:47:51.806Z,53.31
2022-08-09T05:50:36.135Z,53.31
2022-08-09T05:53:21.657Z,53.39
2022-08-09T05:55:59.749Z,53.38
2022-08-09T05:58:29.333Z,53.36
2022-08-09T06:00:58.242Z,53.43
2022-08-09T06:03:34.794Z,53.31
2022-08-09T06:06:12.009Z,53.47
2022-08-09T06:08:41.046Z,53.47
2022-08-09T06:11:16.479Z,53.33
2022-08-09T06:13:47.411Z,53.56
2022-08-09T06:16:16.318Z,53.45
2022-08-09T06:18:44.891Z,53.36
2022-08-09T06:21:12.677Z,53.49
2022-08-09T06:23:58.917Z,53.54
2022-08-09T06:26:30.212Z,53.52
2022-08-09T06:29:04.699Z,53.49
2022-08-09T06:31:39.288Z,53.46
2022-08-09T06:34:26.284Z,53.38
2022-08-09T06:36:59.853Z,53.55
2022-08-09T06:39:48.759Z,53.51
2022-08-09T06:42:24.886Z,53.57
2022-08-09T06:44:57.504Z,53.55
2022-08-09T06:47:30.000Z,53.39
2022-08-09T06:50:14.155Z,53.45
2022-08-09T06:52:48.536Z,53.51
2022-08-09T06:55:23.370Z,53.54
2022-08-09T06:58:03.469Z,53.57
2022-08-09T07:00:54.214Z,53.43
2022-08-09T07:03:28.267Z,53.54
2022-08-09T07:06:03.654Z,53.54
2022-08-09T07:08:34.664Z,53.38
2022-08-09T07:11:04.300Z,53.22
2022-08-09T07:13:45.315Z,53.16
2022-08-09T07:16:41.166Z,52.70
2022-08-09T07:19:15.630Z,52.32
2022-08-09T07:21:55.890Z,52.16
2022-08-09T07:24:32.466Z,52.53
2022-08-09T07:27:27.282Z,52.46
2022-08-09T07:30:00.250Z,52.41
2022-08-09T07:32:33.301Z,52.25
2022-08-09T07:35:10.459Z,51.98
2022-08-09T07:37:44.113Z,51.52
2022-08-09T07:40:17.041Z,51.30
2022-08-09T07:42:57.133Z,51.39
2022-08-09T07:45:37.926Z,51.36
2022-08-09T07:48:28.917Z,50.90
2022-08-09T07:51:09.657Z,50.99
2022-08-09T07:54:06.855Z,50.70
2022-08-09T07:56:44.726Z,50.54
2022-08-09T07:59:33.765Z,50.56
2022-08-09T08:02:06.724Z,50.48
2022-08-09T08:04:37.220Z,50.32
2022-08-09T08:07:09.321Z,50.16
2022-08-09T08:09:51.660Z,49.90
2022-08-09T08:12:28.131Z,49.65
2022-08-09T08:14:57.715Z,49.84
2022-08-09T08:17:52.080Z,49.49
2022-08-09T08:20:15.076Z,49.48
2022-08-09T08:22:42.922Z,49.34
2022-08-09T08:25:13.538Z,49.21
2022-08-09T08:27:43.174Z,49.27
2022-08-09T08:30:13.836Z,48.98
2022-08-09T08:32:53.538Z,48.90
2022-08-09T08:35:22.819Z,48.64
2022-08-09T08:37:59.503Z,48.67
2022-08-09T08:40:29.707Z,48.82
2022-08-09T08:42:58.729Z,48.66
2022-08-09T08:45:37.076Z,48.46
2022-08-09T08:48:06.263Z,48.48
2022-08-09T08:50:38.402Z,48.34
2022-08-09T08:53:11.867Z,48.33
2022-08-09T08:55:44.003Z,48.29
2022-08-09T08:58:12.049Z,48.26
2022-08-09T09:00:42.820Z,48.38
2022-08-09T09:03:25.171Z,47.80
2022-08-09T09:06:05.824Z,47.86
2022-08-09T09:08:38.117Z,47.54
2022-08-09T09:11:17.796Z,47.44
2022-08-09T09:13:57.406Z,47.38
2022-08-09T09:16:33.841Z,47.27
2022-08-09T09:19:39.356Z,47.06
2022-08-09T09:22:03.741Z,46.82
2022-08-09T09:24:38.902Z,46.73
2022-08-09T09:27:47.235Z,46.29
2022-08-09T09:30:14.091Z,45.98
2022-08-09T09:33:02.728Z,45.67
2022-08-09T09:36:02.488Z,45.29
2022-08-09T09:38:49.348Z,45.15
2022-08-09T09:41:33.066Z,44.51
2022-08-09T09:44:10.833Z,44.44
2022-08-09T09:46:50.743Z,44.37
2022-08-09T09:49:23.495Z,44.01
2022-08-09T09:52:16.664Z,43.53
2022-08-09T09:55:16.379Z,43.15
2022-08-09T09:58:03.081Z,42.76
2022-08-09T10:00:33.614Z,42.26
2022-08-09T10:03:11.450Z,42.19
2022-08-09T10:06:03.290Z,42.30
2022-08-09T10:08:32.491Z,42.13
2022-08-09T10:11:59.376Z,41.81
2022-08-09T10:14:05.188Z,41.27
2022-08-09T10:16:58.171Z,41.14
2022-08-09T10:19:37.402Z,40.80
2022-08-09T10:22:05.911Z,40.58
2022-08-09T10:24:36.083Z,40.16
2022-08-09T10:27:05.411Z,40.20
2022-08-09T10:30:57.867Z,40.02
2022-08-09T10:32:40.309Z,39.90
2022-08-09T10:35:10.943Z,39.86
2022-08-09T10:37:44.025Z,39.47
2022-08-09T10:40:34.995Z,39.60
2022-08-09T10:43:02.181Z,39.21
2022-08-09T10:45:35.406Z,39.24
2022-08-09T10:48:33.838Z,38.91
2022-08-09T10:51:45.899Z,38.98
2022-08-09T10:54:25.481Z,38.69
2022-08-09T10:57:09.858Z,38.77
2022-08-09T10:59:43.162Z,38.52
2022-08-09T11:03:14.276Z,38.66
2022-08-09T11:05:30.136Z,38.59
2022-08-09T11:08:43.556Z,38.69
2022-08-09T11:11:17.539Z,38.50
2022-08-09T11:13:50.660Z,38.58
2022-08-09T11:16:40.953Z,38.38
2022-08-09T11:19:11.005Z,38.34
2022-08-09T11:22:10.276Z,38.33
2022-08-09T11:25:19.197Z,38.32
2022-08-09T11:28:04.069Z,38.37
2022-08-09T11:30:36.393Z,38.30
2022-08-09T11:33:40.107Z,38.28
2022-08-09T11:36:08.667Z,38.41
2022-08-09T11:38:42.630Z,38.26
2022-08-09T11:41:15.940Z,38.31
2022-08-09T11:43:49.050Z,38.40
2022-08-09T11:46:26.638Z,38.13
2022-08-09T11:49:04.946Z,38.24
2022-08-09T11:53:00.869Z,38.22
2022-08-09T11:55:35.114Z,38.62
2022-08-09T11:58:15.661Z,38.44
2022-08-09T12:00:55.050Z,38.59
2022-08-09T12:03:55.472Z,38.60
2022-08-09T12:06:26.836Z,38.79
2022-08-09T12:09:06.616Z,38.47
2022-08-09T12:12:04.050Z,38.29
2022-08-09T12:14:40.977Z,38.28
2022-08-09T12:17:34.733Z,38.46
2022-08-09T12:20:22.235Z,38.38
2022-08-09T12:22:56.896Z,38.37
2022-08-09T12:25:36.158Z,38.32
2022-08-09T12:28:59.247Z,38.37
2022-08-09T12:31:11.100Z,38.38
2022-08-09T12:34:00.878Z,38.32
2022-08-09T12:36:33.877Z,38.48
2022-08-09T12:39:14.379Z,38.48
2022-08-09T12:41:42.235Z,38.26
2022-08-09T12:44:13.032Z,38.26
2022-08-09T12:46:48.634Z,38.19
2022-08-09T12:49:20.915Z,38.28
2022-08-09T12:52:01.048Z,38.15
2022-08-09T12:55:03.235Z,38.20
2022-08-09T12:57:39.353Z,38.21
2022-08-09T13:00:17.597Z,38.25
2022-08-09T13:02:53.483Z,38.25
2022-08-09T13:05:25.274Z,38.21
2022-08-09T13:08:21.257Z,38.42
2022-08-09T13:11:23.218Z,38.13
2022-08-09T13:14:38.676Z,38.45
2022-08-09T13:16:57.715Z,37.92
2022-08-09T13:20:11.303Z,38.00
2022-08-09T13:22:45.539Z,38.34
2022-08-09T13:25:14.496Z,38.03
2022-08-09T13:27:48.603Z,38.13
2022-08-09T13:30:49.208Z,38.13
2022-08-09T13:33:22.778Z,37.99
2022-08-09T13:36:38.385Z,38.04
2022-08-09T13:38:57.390Z,38.33
2022-08-09T13:41:54.740Z,38.06
2022-08-09T13:44:17.062Z,38.19
2022-08-09T13:47:29.356Z,38.40
2022-08-09T13:49:39.799Z,38.28
2022-08-09T13:52:30.653Z,38.14
2022-08-09T13:55:04.749Z,37.94
2022-08-09T13:57:40.716Z,37.98
2022-08-09T14:00:17.774Z,37.95
2022-08-09T14:03:04.535Z,38.11
2022-08-09T14:05:58.951Z,38.23
2022-08-09T14:08:27.120Z,38.22
2022-08-09T14:10:56.215Z,38.38
2022-08-09T14:14:14.682Z,38.38
2022-08-09T14:16:16.689Z,38.51
2022-08-09T14:18:49.560Z,38.37
2022-08-09T14:21:24.076Z,38.51
2022-08-09T14:23:56.714Z,38.58
2022-08-09T14:26:32.253Z,38.58
2022-08-09T14:29:07.964Z,38.43
2022-08-09T14:31:54.711Z,38.56
2022-08-09T14:34:31.201Z,38.67
2022-08-09T14:37:06.667Z,38.56
2022-08-09T14:39:45.851Z,38.63
2022-08-09T14:42:30.847Z,38.66
2022-08-09T14:46:54.806Z,38.58
2022-08-09T14:47:58.055Z,38.63
2022-08-09T14:50:30.708Z,38.47
2022-08-09T14:53:06.203Z,38.44
2022-08-09T14:55:42.401Z,38.49
2022-08-09T14:58:19.087Z,38.58
2022-08-09T15:00:48.115Z,38.43
2022-08-09T15:03:19.980Z,38.61
2022-08-09T15:05:52.645Z,38.66
2022-08-09T15:08:26.016Z,38.70
2022-08-09T15:11:00.285Z,38.67
2022-08-09T15:13:48.424Z,38.66
2022-08-09T15:16:18.182Z,38.52
2022-08-09T15:18:48.322Z,38.60
2022-08-09T15:21:54.799Z,38.57
2022-08-09T15:24:12.544Z,38.47
2022-08-09T15:26:45.919Z,38.67
2022-08-09T15:30:48.270Z,38.57
2022-08-09T15:32:06.395Z,38.74
2022-08-09T15:34:55.121Z,38.76
2022-08-09T15:37:37.068Z,38.81
2022-08-09T15:40:11.817Z,38.79
2022-08-09T15:42:42.503Z,38.76
2022-08-09T15:45:12.854Z,38.82
2022-08-09T15:47:52.832Z,38.77
2022-08-09T15:50:29.526Z,38.59
2022-08-09T15:53:07.048Z,38.65
2022-08-09T15:56:11.094Z,38.67
2022-08-09T15:58:34.253Z,38.67
2022-08-09T16:01:02.512Z,38.67
2022-08-09T16:03:38.745Z,38.61
2022-08-09T16:06:32.618Z,38.50
2022-08-09T16:09:01.174Z,38.62
2022-08-09T16:11:33.115Z,38.64
2022-08-09T16:14:07.106Z,38.64
2022-08-09T16:16:38.118Z,38.61
2022-08-09T16:19:08.383Z,38.57
2022-08-09T16:21:37.199Z,38.66
2022-08-09T16:24:08.950Z,38.69
2022-08-09T16:26:55.396Z,38.75
2022-08-09T16:29:37.084Z,38.57
2022-08-09T16:32:17.695Z,38.61
2022-08-09T16:34:58.015Z,38.87
2022-08-09T16:37:55.956Z,38.67
2022-08-09T16:40:20.658Z,38.74
2022-08-09T16:43:04.820Z,38.78
2022-08-09T16:45:33.067Z,38.80
2022-08-09T16:48:38.669Z,38.81
2022-08-09T16:50:58.827Z,38.93
2022-08-09T16:53:33.862Z,38.79
2022-08-09T16:56:09.333Z,39.07
2022-08-09T16:58:42.598Z,38.97
2022-08-09T17:01:19.402Z,39.02
2022-08-09T17:03:52.997Z,38.89
2022-08-09T17:06:31.631Z,39.12
2022-08-09T17:09:09.432Z,38.88
2022-08-09T17:11:51.269Z,39.09
2022-08-09T17:14:27.161Z,39.03
2022-08-09T17:17:00.015Z,39.10
2022-08-09T17:19:47.423Z,39.06
2022-08-09T17:22:24.116Z,39.18
2022-08-09T17:25:03.075Z,39.09
2022-08-09T17:27:33.922Z,39.39
2022-08-09T17:30:04.636Z,39.24
2022-08-09T17:32:38.304Z,39.19
2022-08-09T17:35:12.369Z,39.47
2022-08-09T17:38:02.576Z,39.28
2022-08-09T17:40:33.241Z,39.41
2022-08-09T17:43:32.783Z,39.55
2022-08-09T17:46:02.802Z,39.48
2022-08-09T17:48:33.120Z,39.69
2022-08-09T17:51:09.738Z,39.92
2022-08-09T17:53:47.978Z,39.52
2022-08-09T17:56:35.387Z,39.56
2022-08-09T17:59:11.343Z,39.78
2022-08-09T18:02:07.739Z,39.55
2022-08-09T18:04:28.982Z,39.78
2022-08-09T18:06:57.420Z,39.99
2022-08-09T18:09:41.019Z,40.03
2022-08-09T18:12:17.506Z,40.01
2022-08-09T18:14:55.217Z,40.04
2022-08-09T18:18:01.607Z,39.90
2022-08-09T18:20:53.887Z,40.43
2022-08-09T18:23:05.002Z,40.49
2022-08-09T18:25:53.061Z,40.49
2022-08-09T18:30:40.041Z,40.58
2022-08-09T18:31:12.409Z,40.85
2022-08-09T18:33:40.629Z,40.84
2022-08-09T18:36:14.159Z,40.66
2022-08-09T18:38:57.513Z,41.16
2022-08-09T18:41:35.105Z,40.99
2022-08-09T18:44:13.083Z,41.17
2022-08-09T18:47:04.886Z,41.24
2022-08-09T18:49:43.690Z,41.33
2022-08-09T18:52:24.579Z,41.42
2022-08-09T18:54:56.256Z,41.78
2022-08-09T18:57:38.637Z,41.59
2022-08-09T19:00:16.795Z,41.75
2022-08-09T19:02:51.180Z,41.94
2022-08-09T19:05:41.284Z,41.93
2022-08-09T19:08:14.046Z,42.14
2022-08-09T19:10:48.037Z,42.37
2022-08-09T19:13:20.235Z,42.16
2022-08-09T19:15:55.753Z,42.40
2022-08-09T19:18:33.384Z,42.32
2022-08-09T19:21:09.818Z,42.83
2022-08-09T19:24:36.081Z,42.84
2022-08-09T19:26:34.660Z,43.15
2022-08-09T19:29:15.364Z,43.07
2022-08-09T19:31:51.384Z,43.05
2022-08-09T19:34:23.184Z,43.24
2022-08-09T19:36:53.633Z,43.45
2022-08-09T19:39:43.012Z,43.45
2022-08-09T19:42:15.322Z,43.74
2022-08-09T19:44:49.499Z,43.66
2022-08-09T19:47:22.985Z,43.72
2022-08-09T19:50:09.091Z,43.94
2022-08-09T19:52:49.361Z,44.02
2022-08-09T19:55:25.548Z,44.17
2022-08-09T19:57:59.628Z,44.26
2022-08-09T20:00:27.597Z,44.24
2022-08-09T20:04:11.399Z,44.42
2022-08-09T20:05:46.798Z,44.59
2022-08-09T20:08:24.990Z,44.68
2022-08-09T20:11:04.828Z,44.81
2022-08-09T20:13:37.183Z,44.80
2022-08-09T20:16:33.755Z,44.94
2022-08-09T20:19:42.369Z,45.13
2022-08-09T20:21:55.131Z,45.16
2022-08-09T20:24:32.095Z,45.28
2022-08-09T20:27:05.703Z,45.40
2022-08-09T20:29:38.812Z,45.45
2022-08-09T20:32:31.301Z,45.64
2022-08-09T20:35:00.077Z,45.80
2022-08-09T20:37:37.335Z,45.92
2022-08-09T20:40:27.014Z,45.78
2022-08-09T20:43:18.446Z,45.92
2022-08-09T20:46:00.452Z,46.05
2022-08-09T20:48:38.342Z,46.28
2022-08-09T20:51:06.884Z,46.07
2022-08-09T20:53:36.565Z,46.46
2022-08-09T20:56:17.315Z,46.41
2022-08-09T20:58:54.552Z,46.48
2022-08-09T21:01:34.726Z,46.60
2022-08-09T21:05:54.618Z,46.71
2022-08-09T21:07:12.254Z,46.80
2022-08-09T21:09:45.624Z,46.88
2022-08-09T21:14:50.205Z,46.92
2022-08-09T21:18:11.236Z,47.26
2022-08-09T21:20:22.535Z,47.16
2022-08-09T21:22:54.885Z,47.45
2022-08-09T21:25:43.945Z,47.48
2022-08-09T21:28:34.787Z,47.67
2022-08-09T21:31:17.444Z,47.51
2022-08-09T21:33:50.811Z,47.88
2022-08-09T21:36:28.165Z,47.96
2022-08-09T21:38:59.326Z,47.93
2022-08-09T21:42:05.884Z,47.83
2022-08-09T21:44:33.000Z,48.16
2022-08-09T21:47:05.010Z,48.21
2022-08-09T21:49:39.430Z,48.19
2022-08-09T21:52:17.090Z,48.31
2022-08-09T21:55:03.690Z,48.37
2022-08-09T21:57:58.732Z,48.55
2022-08-09T22:00:32.453Z,48.83
2022-08-09T22:03:07.331Z,48.68
2022-08-09T22:05:42.307Z,48.96
2022-08-09T22:08:16.376Z,48.95
2022-08-09T22:11:50.465Z,48.95
2022-08-09T22:13:35.602Z,49.11
2022-08-09T22:16:09.063Z,49.12
2022-08-09T22:18:52.923Z,49.16
2022-08-09T22:21:27.461Z,49.31
2022-08-09T22:24:17.111Z,49.42
2022-08-09T22:26:51.646Z,49.65
2022-08-09T22:29:26.876Z,49.61
2022-08-09T22:32:00.469Z,49.70
2022-08-09T22:34:28.770Z,49.70
2022-08-09T22:36:58.307Z,49.79
2022-08-09T22:39:56.305Z,49.90
2022-08-09T22:42:21.056Z,50.06
2022-08-09T22:48:06.112Z,50.17
2022-08-09T22:48:14.810Z,50.15
2022-08-09T22:50:32.593Z,50.33
2022-08-09T22:53:03.914Z,50.35
2022-08-09T22:56:07.157Z,50.47
2022-08-09T22:58:33.150Z,50.53
2022-08-09T23:01:05.964Z,50.64
2022-08-09T23:04:06.041Z,50.69
2022-08-09T23:06:35.093Z,50.78
2022-08-09T23:09:06.153Z,50.90
2022-08-09T23:11:34.149Z,50.98
2022-08-09T23:14:03.648Z,51.05
2022-08-09T23:16:34.275Z,51.17
2022-08-09T23:19:02.333Z,51.14
2022-08-09T23:21:34.157Z,51.21
2022-08-09T23:24:06.805Z,51.39
2022-08-09T23:26:36.589Z,51.43
2022-08-09T23:29:11.442Z,51.51
2022-08-09T23:31:40.802Z,51.56
2022-08-09T23:34:09.594Z,51.58
2022-08-09T23:36:37.517Z,51.71
2022-08-09T23:39:07.537Z,51.78
2022-08-09T23:41:35.674Z,51.84
2022-08-09T23:44:03.930Z,51.97
2022-08-09T23:46:32.730Z,52.03
2022-08-09T23:49:01.109Z,52.13
2022-08-09T23:51:28.955Z,52.12
2022-08-09T23:54:03.255Z,52.10
2022-08-09T23:56:51.999Z,52.21
2022-08-09T23:59:21.680Z,52.29
